sensor_id;sensor_type;location;lat;lon;timestamp;P1;durP1;ratioP1;P2;durP2;ratioP2
17662;SDS011;8950;56.892;15.090;2022-12-31T00:00:05;4.82;;;2.88;;
17662;SDS011;8950;56.892;15.090;2022-12-31T00:02:32;3.42;;;2.67;;
17662;SDS011;8950;56.892;15.090;2022-12-31T00:04:59;3.97;;;2.63;;
17662;SDS011;8950;56.892;15.090;2022-12-31T00:07:25;3.60;;;2.75;;
17662;SDS011;8950;56.892;15.090;2022-12-31T00:09:53;5.07;;;2.88;;
17662;SDS011;8950;56.892;15.090;2022-12-31T00:12:19;4.80;;;3.22;;
17662;SDS011;8950;56.892;15.090;2022-12-31T00:14:46;3.88;;;2.67;;
17662;SDS011;8950;56.892;15.090;2022-12-31T00:17:12;3.25;;;2.70;;
17662;SDS011;8950;56.892;15.090;2022-12-31T00:19:39;3.03;;;2.40;;
17662;SDS011;8950;56.892;15.090;2022-12-31T00:22:05;3.95;;;2.55;;
17662;SDS011;8950;56.892;15.090;2022-12-31T00:24:31;3.55;;;2.58;;
17662;SDS011;8950;56.892;15.090;2022-12-31T00:27:01;3.10;;;2.15;;
17662;SDS011;8950;56.892;15.090;2022-12-31T00:29:27;2.78;;;2.20;;
17662;SDS011;8950;56.892;15.090;2022-12-31T00:31:54;3.08;;;2.38;;
17662;SDS011;8950;56.892;15.090;2022-12-31T00:34:20;3.20;;;2.15;;
17662;SDS011;8950;56.892;15.090;2022-12-31T00:36:46;3.83;;;2.70;;
17662;SDS011;8950;56.892;15.090;2022-12-31T00:39:13;3.05;;;1.80;;
17662;SDS011;8950;56.892;15.090;2022-12-31T00:41:40;2.08;;;1.85;;
17662;SDS011;8950;56.892;15.090;2022-12-31T00:44:09;2.28;;;1.92;;
17662;SDS011;8950;56.892;15.090;2022-12-31T00:46:36;4.28;;;1.95;;
17662;SDS011;8950;56.892;15.090;2022-12-31T00:49:02;1.85;;;1.70;;
17662;SDS011;8950;56.892;15.090;2022-12-31T00:51:29;1.88;;;1.70;;
17662;SDS011;8950;56.892;15.090;2022-12-31T00:53:56;1.67;;;1.58;;
17662;SDS011;8950;56.892;15.090;2022-12-31T00:56:23;1.80;;;1.70;;
17662;SDS011;8950;56.892;15.090;2022-12-31T00:58:50;1.98;;;1.52;;
17662;SDS011;8950;56.892;15.090;2022-12-31T01:01:19;2.13;;;1.65;;
17662;SDS011;8950;56.892;15.090;2022-12-31T01:03:46;1.27;;;1.15;;
17662;SDS011;8950;56.892;15.090;2022-12-31T01:06:13;1.20;;;1.20;;
17662;SDS011;8950;56.892;15.090;2022-12-31T01:08:40;1.60;;;1.50;;
17662;SDS011;8950;56.892;15.090;2022-12-31T01:11:06;1.40;;;1.30;;
17662;SDS011;8950;56.892;15.090;2022-12-31T01:13:46;1.20;;;1.10;;
17662;SDS011;8950;56.892;15.090;2022-12-31T01:16:13;1.40;;;1.30;;
17662;SDS011;8950;56.892;15.090;2022-12-31T01:18:41;1.35;;;1.25;;
17662;SDS011;8950;56.892;15.090;2022-12-31T01:21:09;1.35;;;1.20;;
17662;SDS011;8950;56.892;15.090;2022-12-31T01:23:36;1.20;;;1.10;;
17662;SDS011;8950;56.892;15.090;2022-12-31T01:26:03;1.92;;;1.25;;
17662;SDS011;8950;56.892;15.090;2022-12-31T01:28:30;1.30;;;1.20;;
17662;SDS011;8950;56.892;15.090;2022-12-31T01:30:56;1.10;;;1.10;;
17662;SDS011;8950;56.892;15.090;2022-12-31T01:33:23;1.42;;;1.27;;
17662;SDS011;8950;56.892;15.090;2022-12-31T01:35:50;1.27;;;1.15;;
17662;SDS011;8950;56.892;15.090;2022-12-31T01:38:17;1.10;;;1.10;;
17662;SDS011;8950;56.892;15.090;2022-12-31T01:40:43;1.02;;;1.02;;
17662;SDS011;8950;56.892;15.090;2022-12-31T01:43:12;0.90;;;0.90;;
17662;SDS011;8950;56.892;15.090;2022-12-31T01:45:40;1.00;;;0.90;;
17662;SDS011;8950;56.892;15.090;2022-12-31T01:48:07;1.10;;;1.05;;
17662;SDS011;8950;56.892;15.090;2022-12-31T01:50:36;1.20;;;1.10;;
17662;SDS011;8950;56.892;15.090;2022-12-31T01:53:05;1.17;;;1.08;;
17662;SDS011;8950;56.892;15.090;2022-12-31T01:55:37;0.90;;;0.90;;
17662;SDS011;8950;56.892;15.090;2022-12-31T01:58:06;0.90;;;0.90;;
17662;SDS011;8950;56.892;15.090;2022-12-31T02:00:33;0.90;;;0.90;;
17662;SDS011;8950;56.892;15.090;2022-12-31T02:03:00;0.95;;;0.90;;
17662;SDS011;8950;56.892;15.090;2022-12-31T02:05:28;1.08;;;0.80;;
17662;SDS011;8950;56.892;15.090;2022-12-31T02:07:56;1.00;;;1.00;;
17662;SDS011;8950;56.892;15.090;2022-12-31T02:10:25;1.00;;;1.00;;
17662;SDS011;8950;56.892;15.090;2022-12-31T02:12:52;0.93;;;0.93;;
17662;SDS011;8950;56.892;15.090;2022-12-31T02:15:19;0.80;;;0.80;;
17662;SDS011;8950;56.892;15.090;2022-12-31T02:17:47;0.80;;;0.80;;
17662;SDS011;8950;56.892;15.090;2022-12-31T02:20:25;0.77;;;0.75;;
17662;SDS011;8950;56.892;15.090;2022-12-31T02:23:09;0.90;;;0.90;;
17662;SDS011;8950;56.892;15.090;2022-12-31T02:26:02;0.90;;;0.90;;
17662;SDS011;8950;56.892;15.090;2022-12-31T02:28:36;0.80;;;0.80;;
17662;SDS011;8950;56.892;15.090;2022-12-31T02:31:07;0.90;;;0.90;;
17662;SDS011;8950;56.892;15.090;2022-12-31T02:33:34;0.80;;;0.80;;
17662;SDS011;8950;56.892;15.090;2022-12-31T02:36:03;0.80;;;0.80;;
17662;SDS011;8950;56.892;15.090;2022-12-31T02:38:32;1.00;;;1.00;;
17662;SDS011;8950;56.892;15.090;2022-12-31T02:40:59;2.10;;;0.90;;
17662;SDS011;8950;56.892;15.090;2022-12-31T02:43:26;0.70;;;0.70;;
17662;SDS011;8950;56.892;15.090;2022-12-31T02:45:55;0.90;;;0.90;;
17662;SDS011;8950;56.892;15.090;2022-12-31T02:48:39;0.80;;;0.80;;
17662;SDS011;8950;56.892;15.090;2022-12-31T02:51:19;0.90;;;0.90;;
17662;SDS011;8950;56.892;15.090;2022-12-31T02:53:59;1.00;;;1.00;;
17662;SDS011;8950;56.892;15.090;2022-12-31T02:56:29;1.00;;;1.00;;
17662;SDS011;8950;56.892;15.090;2022-12-31T02:59:00;1.08;;;1.00;;
17662;SDS011;8950;56.892;15.090;2022-12-31T03:02:01;1.92;;;1.10;;
17662;SDS011;8950;56.892;15.090;2022-12-31T03:04:46;1.30;;;1.20;;
17662;SDS011;8950;56.892;15.090;2022-12-31T03:07:14;1.10;;;1.10;;
17662;SDS011;8950;56.892;15.090;2022-12-31T03:09:43;1.80;;;1.00;;
17662;SDS011;8950;56.892;15.090;2022-12-31T03:12:10;0.85;;;0.85;;
17662;SDS011;8950;56.892;15.090;2022-12-31T03:14:54;1.40;;;1.30;;
17662;SDS011;8950;56.892;15.090;2022-12-31T03:17:20;1.33;;;1.23;;
17662;SDS011;8950;56.892;15.090;2022-12-31T03:19:48;1.40;;;1.30;;
17662;SDS011;8950;56.892;15.090;2022-12-31T03:22:32;1.65;;;1.30;;
17662;SDS011;8950;56.892;15.090;2022-12-31T03:25:01;1.60;;;1.50;;
17662;SDS011;8950;56.892;15.090;2022-12-31T03:27:45;1.52;;;1.23;;
17662;SDS011;8950;56.892;15.090;2022-12-31T03:30:12;2.85;;;1.35;;
17662;SDS011;8950;56.892;15.090;2022-12-31T03:32:39;2.95;;;1.40;;
17662;SDS011;8950;56.892;15.090;2022-12-31T03:35:09;2.40;;;1.50;;
17662;SDS011;8950;56.892;15.090;2022-12-31T03:37:36;2.25;;;1.52;;
17662;SDS011;8950;56.892;15.090;2022-12-31T03:40:05;3.08;;;1.70;;
17662;SDS011;8950;56.892;15.090;2022-12-31T03:42:32;2.75;;;1.60;;
17662;SDS011;8950;56.892;15.090;2022-12-31T03:44:59;2.85;;;1.50;;
17662;SDS011;8950;56.892;15.090;2022-12-31T03:47:25;3.78;;;1.95;;
17662;SDS011;8950;56.892;15.090;2022-12-31T03:49:52;3.42;;;1.90;;
17662;SDS011;8950;56.892;15.090;2022-12-31T03:52:20;5.10;;;2.08;;
17662;SDS011;8950;56.892;15.090;2022-12-31T03:54:47;4.15;;;1.73;;
17662;SDS011;8950;56.892;15.090;2022-12-31T03:57:13;2.92;;;1.70;;
17662;SDS011;8950;56.892;15.090;2022-12-31T03:59:39;5.07;;;1.90;;
17662;SDS011;8950;56.892;15.090;2022-12-31T04:02:06;5.13;;;2.00;;
17662;SDS011;8950;56.892;15.090;2022-12-31T04:04:32;4.03;;;2.20;;
17662;SDS011;8950;56.892;15.090;2022-12-31T04:06:59;3.83;;;2.30;;
17662;SDS011;8950;56.892;15.090;2022-12-31T04:09:26;5.55;;;2.38;;
17662;SDS011;8950;56.892;15.090;2022-12-31T04:11:53;4.30;;;2.22;;
17662;SDS011;8950;56.892;15.090;2022-12-31T04:14:19;3.53;;;1.83;;
17662;SDS011;8950;56.892;15.090;2022-12-31T04:16:46;5.78;;;2.25;;
17662;SDS011;8950;56.892;15.090;2022-12-31T04:19:12;6.22;;;2.15;;
17662;SDS011;8950;56.892;15.090;2022-12-31T04:21:39;4.35;;;2.30;;
17662;SDS011;8950;56.892;15.090;2022-12-31T04:24:05;5.18;;;2.13;;
17662;SDS011;8950;56.892;15.090;2022-12-31T04:26:35;5.32;;;2.05;;
17662;SDS011;8950;56.892;15.090;2022-12-31T04:29:02;5.68;;;2.20;;
17662;SDS011;8950;56.892;15.090;2022-12-31T04:31:29;4.85;;;2.10;;
17662;SDS011;8950;56.892;15.090;2022-12-31T04:33:55;4.63;;;2.10;;
17662;SDS011;8950;56.892;15.090;2022-12-31T04:36:21;6.10;;;2.45;;
17662;SDS011;8950;56.892;15.090;2022-12-31T04:38:48;4.97;;;2.38;;
17662;SDS011;8950;56.892;15.090;2022-12-31T04:41:14;5.13;;;2.90;;
17662;SDS011;8950;56.892;15.090;2022-12-31T04:43:46;5.35;;;2.40;;
17662;SDS011;8950;56.892;15.090;2022-12-31T04:46:13;6.97;;;2.45;;
17662;SDS011;8950;56.892;15.090;2022-12-31T04:48:40;4.43;;;2.30;;
17662;SDS011;8950;56.892;15.090;2022-12-31T04:51:06;5.45;;;2.30;;
17662;SDS011;8950;56.892;15.090;2022-12-31T04:53:32;5.35;;;2.22;;
17662;SDS011;8950;56.892;15.090;2022-12-31T04:55:59;5.68;;;2.20;;
17662;SDS011;8950;56.892;15.090;2022-12-31T04:58:25;5.25;;;2.45;;
17662;SDS011;8950;56.892;15.090;2022-12-31T05:00:53;7.32;;;2.40;;
17662;SDS011;8950;56.892;15.090;2022-12-31T05:03:20;5.82;;;2.40;;
17662;SDS011;8950;56.892;15.090;2022-12-31T05:05:47;9.50;;;2.58;;
17662;SDS011;8950;56.892;15.090;2022-12-31T05:08:14;5.93;;;2.60;;
17662;SDS011;8950;56.892;15.090;2022-12-31T05:10:41;6.97;;;2.55;;
17662;SDS011;8950;56.892;15.090;2022-12-31T05:13:08;5.50;;;2.53;;
17662;SDS011;8950;56.892;15.090;2022-12-31T05:15:34;5.75;;;2.50;;
17662;SDS011;8950;56.892;15.090;2022-12-31T05:18:05;7.28;;;2.72;;
17662;SDS011;8950;56.892;15.090;2022-12-31T05:20:32;7.60;;;3.22;;
17662;SDS011;8950;56.892;15.090;2022-12-31T05:22:58;5.18;;;2.30;;
17662;SDS011;8950;56.892;15.090;2022-12-31T05:25:25;7.05;;;2.47;;
17662;SDS011;8950;56.892;15.090;2022-12-31T05:27:51;5.32;;;2.60;;
17662;SDS011;8950;56.892;15.090;2022-12-31T05:30:18;5.93;;;2.67;;
17662;SDS011;8950;56.892;15.090;2022-12-31T05:32:45;5.88;;;2.70;;
17662;SDS011;8950;56.892;15.090;2022-12-31T05:35:13;5.30;;;2.38;;
17662;SDS011;8950;56.892;15.090;2022-12-31T05:37:39;6.63;;;2.40;;
17662;SDS011;8950;56.892;15.090;2022-12-31T05:40:06;7.75;;;2.58;;
17662;SDS011;8950;56.892;15.090;2022-12-31T05:42:33;6.75;;;2.47;;
17662;SDS011;8950;56.892;15.090;2022-12-31T05:44:59;7.22;;;2.63;;
17662;SDS011;8950;56.892;15.090;2022-12-31T05:47:26;4.82;;;2.17;;
17662;SDS011;8950;56.892;15.090;2022-12-31T05:49:52;7.18;;;2.63;;
17662;SDS011;8950;56.892;15.090;2022-12-31T05:52:20;9.23;;;2.72;;
17662;SDS011;8950;56.892;15.090;2022-12-31T05:54:47;5.68;;;2.78;;
17662;SDS011;8950;56.892;15.090;2022-12-31T05:57:14;8.32;;;2.67;;
17662;SDS011;8950;56.892;15.090;2022-12-31T05:59:40;5.68;;;2.65;;
17662;SDS011;8950;56.892;15.090;2022-12-31T06:02:06;6.95;;;2.65;;
17662;SDS011;8950;56.892;15.090;2022-12-31T06:04:33;6.65;;;2.55;;
17662;SDS011;8950;56.892;15.090;2022-12-31T06:06:59;7.10;;;2.55;;
17662;SDS011;8950;56.892;15.090;2022-12-31T06:09:27;5.00;;;2.30;;
17662;SDS011;8950;56.892;15.090;2022-12-31T06:11:53;8.05;;;3.15;;
17662;SDS011;8950;56.892;15.090;2022-12-31T06:14:20;5.50;;;2.72;;
17662;SDS011;8950;56.892;15.090;2022-12-31T06:16:47;7.00;;;2.70;;
17662;SDS011;8950;56.892;15.090;2022-12-31T06:19:13;5.65;;;2.70;;
17662;SDS011;8950;56.892;15.090;2022-12-31T06:21:40;6.40;;;2.15;;
17662;SDS011;8950;56.892;15.090;2022-12-31T06:24:06;5.30;;;2.60;;
17662;SDS011;8950;56.892;15.090;2022-12-31T06:26:34;7.82;;;2.22;;
17662;SDS011;8950;56.892;15.090;2022-12-31T06:29:00;7.13;;;2.72;;
17662;SDS011;8950;56.892;15.090;2022-12-31T06:31:27;7.47;;;2.97;;
17662;SDS011;8950;56.892;15.090;2022-12-31T06:33:53;5.70;;;2.75;;
17662;SDS011;8950;56.892;15.090;2022-12-31T06:36:20;6.63;;;2.30;;
17662;SDS011;8950;56.892;15.090;2022-12-31T06:38:47;7.13;;;2.90;;
17662;SDS011;8950;56.892;15.090;2022-12-31T06:41:14;8.30;;;2.85;;
17662;SDS011;8950;56.892;15.090;2022-12-31T06:43:43;6.13;;;2.20;;
17662;SDS011;8950;56.892;15.090;2022-12-31T06:46:11;5.40;;;2.58;;
17662;SDS011;8950;56.892;15.090;2022-12-31T06:48:37;9.02;;;3.03;;
17662;SDS011;8950;56.892;15.090;2022-12-31T06:51:08;4.95;;;2.53;;
17662;SDS011;8950;56.892;15.090;2022-12-31T06:53:35;7.15;;;3.28;;
17662;SDS011;8950;56.892;15.090;2022-12-31T06:56:03;6.05;;;2.92;;
17662;SDS011;8950;56.892;15.090;2022-12-31T06:58:30;7.65;;;2.80;;
17662;SDS011;8950;56.892;15.090;2022-12-31T07:00:59;6.18;;;2.97;;
17662;SDS011;8950;56.892;15.090;2022-12-31T07:03:28;6.15;;;2.63;;
17662;SDS011;8950;56.892;15.090;2022-12-31T07:05:57;7.43;;;2.60;;
17662;SDS011;8950;56.892;15.090;2022-12-31T07:08:30;7.93;;;2.88;;
17662;SDS011;8950;56.892;15.090;2022-12-31T07:11:00;6.97;;;2.83;;
17662;SDS011;8950;56.892;15.090;2022-12-31T07:16:17;7.30;;;2.85;;
17662;SDS011;8950;56.892;15.090;2022-12-31T07:18:50;7.72;;;3.28;;
17662;SDS011;8950;56.892;15.090;2022-12-31T07:21:21;7.32;;;3.00;;
17662;SDS011;8950;56.892;15.090;2022-12-31T07:23:52;8.93;;;2.95;;
17662;SDS011;8950;56.892;15.090;2022-12-31T07:26:20;7.53;;;3.05;;
17662;SDS011;8950;56.892;15.090;2022-12-31T07:28:53;4.93;;;2.75;;
17662;SDS011;8950;56.892;15.090;2022-12-31T07:31:24;8.25;;;3.30;;
17662;SDS011;8950;56.892;15.090;2022-12-31T07:33:56;9.95;;;3.38;;
17662;SDS011;8950;56.892;15.090;2022-12-31T07:36:34;6.95;;;2.63;;
17662;SDS011;8950;56.892;15.090;2022-12-31T07:39:07;7.43;;;3.20;;
17662;SDS011;8950;56.892;15.090;2022-12-31T07:41:40;5.35;;;2.53;;
17662;SDS011;8950;56.892;15.090;2022-12-31T07:44:09;8.65;;;3.17;;
17662;SDS011;8950;56.892;15.090;2022-12-31T07:46:45;5.68;;;3.05;;
17662;SDS011;8950;56.892;15.090;2022-12-31T07:49:14;7.63;;;3.03;;
17662;SDS011;8950;56.892;15.090;2022-12-31T07:51:41;7.80;;;3.10;;
17662;SDS011;8950;56.892;15.090;2022-12-31T07:54:07;7.07;;;2.63;;
17662;SDS011;8950;56.892;15.090;2022-12-31T07:56:34;7.75;;;2.90;;
17662;SDS011;8950;56.892;15.090;2022-12-31T07:59:02;9.07;;;3.40;;
17662;SDS011;8950;56.892;15.090;2022-12-31T08:01:33;7.07;;;3.13;;
17662;SDS011;8950;56.892;15.090;2022-12-31T08:04:03;6.70;;;2.60;;
17662;SDS011;8950;56.892;15.090;2022-12-31T08:06:33;8.32;;;3.47;;
17662;SDS011;8950;56.892;15.090;2022-12-31T08:09:02;8.13;;;3.28;;
17662;SDS011;8950;56.892;15.090;2022-12-31T08:11:31;9.20;;;3.63;;
17662;SDS011;8950;56.892;15.090;2022-12-31T08:14:00;9.18;;;3.25;;
17662;SDS011;8950;56.892;15.090;2022-12-31T08:16:27;8.48;;;2.97;;
17662;SDS011;8950;56.892;15.090;2022-12-31T08:18:54;8.70;;;3.15;;
17662;SDS011;8950;56.892;15.090;2022-12-31T08:21:24;6.05;;;2.58;;
17662;SDS011;8950;56.892;15.090;2022-12-31T08:23:56;7.85;;;3.00;;
17662;SDS011;8950;56.892;15.090;2022-12-31T08:26:26;8.32;;;3.72;;
17662;SDS011;8950;56.892;15.090;2022-12-31T08:28:59;7.90;;;3.63;;
17662;SDS011;8950;56.892;15.090;2022-12-31T08:31:29;8.35;;;3.40;;
17662;SDS011;8950;56.892;15.090;2022-12-31T08:33:59;6.57;;;2.95;;
17662;SDS011;8950;56.892;15.090;2022-12-31T08:36:31;6.60;;;3.05;;
17662;SDS011;8950;56.892;15.090;2022-12-31T08:39:02;8.15;;;3.70;;
17662;SDS011;8950;56.892;15.090;2022-12-31T08:41:34;7.10;;;2.65;;
17662;SDS011;8950;56.892;15.090;2022-12-31T08:44:06;10.38;;;3.13;;
17662;SDS011;8950;56.892;15.090;2022-12-31T08:46:37;7.97;;;3.08;;
17662;SDS011;8950;56.892;15.090;2022-12-31T08:49:06;8.50;;;2.92;;
17662;SDS011;8950;56.892;15.090;2022-12-31T08:51:35;6.50;;;3.05;;
17662;SDS011;8950;56.892;15.090;2022-12-31T08:54:02;9.35;;;3.33;;
17662;SDS011;8950;56.892;15.090;2022-12-31T08:56:29;6.60;;;2.97;;
17662;SDS011;8950;56.892;15.090;2022-12-31T08:59:03;6.82;;;3.00;;
17662;SDS011;8950;56.892;15.090;2022-12-31T09:01:34;7.95;;;2.88;;
17662;SDS011;8950;56.892;15.090;2022-12-31T09:04:09;7.47;;;2.95;;
17662;SDS011;8950;56.892;15.090;2022-12-31T09:06:40;6.50;;;2.90;;
17662;SDS011;8950;56.892;15.090;2022-12-31T09:09:09;7.10;;;2.92;;
17662;SDS011;8950;56.892;15.090;2022-12-31T09:11:48;10.13;;;3.50;;
17662;SDS011;8950;56.892;15.090;2022-12-31T09:14:25;8.52;;;3.00;;
17662;SDS011;8950;56.892;15.090;2022-12-31T09:16:56;7.53;;;2.95;;
17662;SDS011;8950;56.892;15.090;2022-12-31T09:19:25;7.20;;;2.72;;
17662;SDS011;8950;56.892;15.090;2022-12-31T09:21:53;7.25;;;3.00;;
17662;SDS011;8950;56.892;15.090;2022-12-31T09:24:20;8.95;;;2.90;;
17662;SDS011;8950;56.892;15.090;2022-12-31T09:26:48;7.55;;;3.15;;
17662;SDS011;8950;56.892;15.090;2022-12-31T09:29:22;8.40;;;3.17;;
17662;SDS011;8950;56.892;15.090;2022-12-31T09:31:53;8.30;;;3.15;;
17662;SDS011;8950;56.892;15.090;2022-12-31T09:34:22;7.07;;;3.25;;
17662;SDS011;8950;56.892;15.090;2022-12-31T09:36:50;8.75;;;3.28;;
17662;SDS011;8950;56.892;15.090;2022-12-31T09:39:23;7.88;;;2.88;;
17662;SDS011;8950;56.892;15.090;2022-12-31T09:41:55;10.75;;;3.10;;
17662;SDS011;8950;56.892;15.090;2022-12-31T09:44:38;7.75;;;3.38;;
17662;SDS011;8950;56.892;15.090;2022-12-31T09:50:08;7.63;;;3.00;;
17662;SDS011;8950;56.892;15.090;2022-12-31T09:52:46;9.13;;;2.90;;
17662;SDS011;8950;56.892;15.090;2022-12-31T09:55:29;8.90;;;2.80;;
17662;SDS011;8950;56.892;15.090;2022-12-31T09:57:58;5.70;;;2.88;;
17662;SDS011;8950;56.892;15.090;2022-12-31T10:00:30;7.22;;;2.85;;
17662;SDS011;8950;56.892;15.090;2022-12-31T10:03:05;10.02;;;3.20;;
17662;SDS011;8950;56.892;15.090;2022-12-31T10:08:27;7.82;;;3.40;;
17662;SDS011;8950;56.892;15.090;2022-12-31T10:10:56;8.27;;;2.88;;
17662;SDS011;8950;56.892;15.090;2022-12-31T10:13:28;8.23;;;2.63;;
17662;SDS011;8950;56.892;15.090;2022-12-31T10:16:08;7.15;;;2.70;;
17662;SDS011;8950;56.892;15.090;2022-12-31T10:18:44;6.22;;;2.92;;
17662;SDS011;8950;56.892;15.090;2022-12-31T10:24:20;8.25;;;2.55;;
17662;SDS011;8950;56.892;15.090;2022-12-31T10:26:53;7.43;;;2.88;;
17662;SDS011;8950;56.892;15.090;2022-12-31T10:29:26;6.97;;;2.70;;
17662;SDS011;8950;56.892;15.090;2022-12-31T10:31:57;8.00;;;3.05;;
17662;SDS011;8950;56.892;15.090;2022-12-31T10:34:30;7.60;;;2.80;;
17662;SDS011;8950;56.892;15.090;2022-12-31T10:37:01;8.52;;;3.28;;
17662;SDS011;8950;56.892;15.090;2022-12-31T10:39:33;8.60;;;3.10;;
17662;SDS011;8950;56.892;15.090;2022-12-31T10:47:46;7.18;;;2.80;;
17662;SDS011;8950;56.892;15.090;2022-12-31T10:53:04;6.28;;;2.58;;
17662;SDS011;8950;56.892;15.090;2022-12-31T10:55:47;8.10;;;3.28;;
17662;SDS011;8950;56.892;15.090;2022-12-31T10:58:27;10.40;;;3.05;;
17662;SDS011;8950;56.892;15.090;2022-12-31T11:01:00;9.75;;;3.15;;
17662;SDS011;8950;56.892;15.090;2022-12-31T11:09:13;8.57;;;3.40;;
17662;SDS011;8950;56.892;15.090;2022-12-31T11:11:46;8.68;;;3.10;;
17662;SDS011;8950;56.892;15.090;2022-12-31T11:14:23;7.10;;;3.55;;
17662;SDS011;8950;56.892;15.090;2022-12-31T11:17:01;11.15;;;3.42;;
17662;SDS011;8950;56.892;15.090;2022-12-31T11:19:33;8.25;;;2.90;;
17662;SDS011;8950;56.892;15.090;2022-12-31T11:22:11;7.93;;;2.97;;
17662;SDS011;8950;56.892;15.090;2022-12-31T11:24:56;5.18;;;2.80;;
17662;SDS011;8950;56.892;15.090;2022-12-31T11:27:44;11.70;;;3.13;;
17662;SDS011;8950;56.892;15.090;2022-12-31T11:30:17;7.40;;;3.00;;
17662;SDS011;8950;56.892;15.090;2022-12-31T11:32:46;7.22;;;2.90;;
17662;SDS011;8950;56.892;15.090;2022-12-31T11:35:19;7.78;;;2.95;;
17662;SDS011;8950;56.892;15.090;2022-12-31T11:37:48;5.90;;;2.22;;
17662;SDS011;8950;56.892;15.090;2022-12-31T11:40:23;6.57;;;2.80;;
17662;SDS011;8950;56.892;15.090;2022-12-31T11:42:55;8.82;;;2.80;;
17662;SDS011;8950;56.892;15.090;2022-12-31T11:45:26;7.22;;;2.80;;
17662;SDS011;8950;56.892;15.090;2022-12-31T11:48:01;7.88;;;2.83;;
17662;SDS011;8950;56.892;15.090;2022-12-31T11:50:31;5.35;;;2.58;;
17662;SDS011;8950;56.892;15.090;2022-12-31T11:53:13;7.28;;;2.70;;
17662;SDS011;8950;56.892;15.090;2022-12-31T11:55:51;6.45;;;2.90;;
17662;SDS011;8950;56.892;15.090;2022-12-31T11:58:21;6.72;;;2.80;;
17662;SDS011;8950;56.892;15.090;2022-12-31T12:00:53;6.05;;;2.45;;
17662;SDS011;8950;56.892;15.090;2022-12-31T12:03:20;7.25;;;2.88;;
17662;SDS011;8950;56.892;15.090;2022-12-31T12:05:48;6.82;;;2.63;;
17662;SDS011;8950;56.892;15.090;2022-12-31T12:08:15;7.65;;;2.58;;
17662;SDS011;8950;56.892;15.090;2022-12-31T12:10:43;6.93;;;2.70;;
17662;SDS011;8950;56.892;15.090;2022-12-31T12:13:13;7.15;;;3.10;;
17662;SDS011;8950;56.892;15.090;2022-12-31T12:15:44;7.68;;;2.75;;
17662;SDS011;8950;56.892;15.090;2022-12-31T12:18:17;6.95;;;2.88;;
17662;SDS011;8950;56.892;15.090;2022-12-31T12:20:48;7.78;;;3.13;;
17662;SDS011;8950;56.892;15.090;2022-12-31T12:23:15;6.82;;;2.95;;
17662;SDS011;8950;56.892;15.090;2022-12-31T12:25:42;5.97;;;2.65;;
17662;SDS011;8950;56.892;15.090;2022-12-31T12:28:18;8.43;;;3.25;;
17662;SDS011;8950;56.892;15.090;2022-12-31T12:30:45;5.90;;;3.13;;
17662;SDS011;8950;56.892;15.090;2022-12-31T12:33:15;8.32;;;3.10;;
17662;SDS011;8950;56.892;15.090;2022-12-31T12:35:41;7.22;;;2.80;;
17662;SDS011;8950;56.892;15.090;2022-12-31T12:38:11;8.75;;;3.10;;
17662;SDS011;8950;56.892;15.090;2022-12-31T12:40:39;8.13;;;2.90;;
17662;SDS011;8950;56.892;15.090;2022-12-31T12:43:05;5.63;;;2.78;;
17662;SDS011;8950;56.892;15.090;2022-12-31T12:45:45;5.50;;;2.70;;
17662;SDS011;8950;56.892;15.090;2022-12-31T12:48:15;9.85;;;3.13;;
17662;SDS011;8950;56.892;15.090;2022-12-31T12:50:44;6.80;;;2.90;;
17662;SDS011;8950;56.892;15.090;2022-12-31T12:53:14;6.75;;;2.63;;
17662;SDS011;8950;56.892;15.090;2022-12-31T12:55:45;6.95;;;2.80;;
17662;SDS011;8950;56.892;15.090;2022-12-31T12:58:19;5.13;;;2.60;;
17662;SDS011;8950;56.892;15.090;2022-12-31T13:00:49;6.68;;;2.65;;
17662;SDS011;8950;56.892;15.090;2022-12-31T13:03:26;6.72;;;2.90;;
17662;SDS011;8950;56.892;15.090;2022-12-31T13:06:03;8.30;;;2.75;;
17662;SDS011;8950;56.892;15.090;2022-12-31T13:08:38;9.60;;;3.08;;
17662;SDS011;8950;56.892;15.090;2022-12-31T13:11:13;7.30;;;3.15;;
17662;SDS011;8950;56.892;15.090;2022-12-31T13:13:44;6.10;;;2.47;;
17662;SDS011;8950;56.892;15.090;2022-12-31T13:16:18;8.52;;;3.10;;
17662;SDS011;8950;56.892;15.090;2022-12-31T13:18:53;6.68;;;2.92;;
17662;SDS011;8950;56.892;15.090;2022-12-31T13:21:27;6.20;;;2.50;;
17662;SDS011;8950;56.892;15.090;2022-12-31T13:23:55;8.32;;;3.15;;
17662;SDS011;8950;56.892;15.090;2022-12-31T13:26:23;6.55;;;2.95;;
17662;SDS011;8950;56.892;15.090;2022-12-31T13:28:52;9.00;;;3.13;;
17662;SDS011;8950;56.892;15.090;2022-12-31T13:31:22;6.07;;;2.55;;
17662;SDS011;8950;56.892;15.090;2022-12-31T13:33:52;7.85;;;3.00;;
17662;SDS011;8950;56.892;15.090;2022-12-31T13:36:20;9.52;;;3.40;;
17662;SDS011;8950;56.892;15.090;2022-12-31T13:38:52;6.38;;;2.60;;
17662;SDS011;8950;56.892;15.090;2022-12-31T13:41:20;6.28;;;2.80;;
17662;SDS011;8950;56.892;15.090;2022-12-31T13:43:49;5.50;;;2.63;;
17662;SDS011;8950;56.892;15.090;2022-12-31T13:46:18;6.55;;;2.80;;
17662;SDS011;8950;56.892;15.090;2022-12-31T13:48:49;7.32;;;3.08;;
17662;SDS011;8950;56.892;15.090;2022-12-31T13:51:20;7.53;;;3.30;;
17662;SDS011;8950;56.892;15.090;2022-12-31T13:53:50;6.65;;;2.58;;
17662;SDS011;8950;56.892;15.090;2022-12-31T13:56:20;8.20;;;2.50;;
17662;SDS011;8950;56.892;15.090;2022-12-31T13:58:49;6.55;;;2.63;;
17662;SDS011;8950;56.892;15.090;2022-12-31T14:01:18;10.57;;;3.03;;
17662;SDS011;8950;56.892;15.090;2022-12-31T14:03:48;8.98;;;2.80;;
17662;SDS011;8950;56.892;15.090;2022-12-31T14:06:18;6.50;;;3.58;;
17662;SDS011;8950;56.892;15.090;2022-12-31T14:08:47;8.32;;;4.32;;
17662;SDS011;8950;56.892;15.090;2022-12-31T14:11:16;7.75;;;3.47;;
17662;SDS011;8950;56.892;15.090;2022-12-31T14:13:49;5.25;;;2.90;;
17662;SDS011;8950;56.892;15.090;2022-12-31T14:16:21;6.32;;;2.88;;
17662;SDS011;8950;56.892;15.090;2022-12-31T14:18:52;8.02;;;3.30;;
17662;SDS011;8950;56.892;15.090;2022-12-31T14:21:22;8.93;;;3.05;;
17662;SDS011;8950;56.892;15.090;2022-12-31T14:23:55;5.32;;;2.67;;
17662;SDS011;8950;56.892;15.090;2022-12-31T14:26:25;7.70;;;2.88;;
17662;SDS011;8950;56.892;15.090;2022-12-31T14:28:58;7.50;;;3.15;;
17662;SDS011;8950;56.892;15.090;2022-12-31T14:31:28;6.43;;;2.70;;
17662;SDS011;8950;56.892;15.090;2022-12-31T14:34:00;7.63;;;2.65;;
17662;SDS011;8950;56.892;15.090;2022-12-31T14:36:33;8.60;;;3.13;;
17662;SDS011;8950;56.892;15.090;2022-12-31T14:39:08;4.93;;;2.70;;
17662;SDS011;8950;56.892;15.090;2022-12-31T14:41:42;7.85;;;2.97;;
17662;SDS011;8950;56.892;15.090;2022-12-31T14:44:17;7.88;;;2.83;;
17662;SDS011;8950;56.892;15.090;2022-12-31T14:46:51;9.90;;;3.38;;
17662;SDS011;8950;56.892;15.090;2022-12-31T14:49:23;8.93;;;2.90;;
17662;SDS011;8950;56.892;15.090;2022-12-31T14:51:55;5.38;;;2.67;;
17662;SDS011;8950;56.892;15.090;2022-12-31T14:54:33;8.50;;;4.28;;
17662;SDS011;8950;56.892;15.090;2022-12-31T14:57:08;6.97;;;3.00;;
17662;SDS011;8950;56.892;15.090;2022-12-31T14:59:35;5.18;;;3.10;;
17662;SDS011;8950;56.892;15.090;2022-12-31T15:02:01;8.27;;;2.85;;
17662;SDS011;8950;56.892;15.090;2022-12-31T15:04:31;7.78;;;3.10;;
17662;SDS011;8950;56.892;15.090;2022-12-31T15:07:01;8.55;;;3.05;;
17662;SDS011;8950;56.892;15.090;2022-12-31T15:12:28;8.88;;;3.08;;
17662;SDS011;8950;56.892;15.090;2022-12-31T15:15:02;5.88;;;3.83;;
17662;SDS011;8950;56.892;15.090;2022-12-31T15:17:35;7.47;;;3.03;;
17662;SDS011;8950;56.892;15.090;2022-12-31T15:20:09;5.97;;;2.70;;
17662;SDS011;8950;56.892;15.090;2022-12-31T15:22:42;6.18;;;3.03;;
17662;SDS011;8950;56.892;15.090;2022-12-31T15:25:19;7.50;;;2.80;;
17662;SDS011;8950;56.892;15.090;2022-12-31T15:27:46;6.07;;;2.50;;
17662;SDS011;8950;56.892;15.090;2022-12-31T15:30:28;8.32;;;3.10;;
17662;SDS011;8950;56.892;15.090;2022-12-31T15:32:55;5.68;;;2.97;;